Alamo, TN

1:44 PM CST on November 23, 2014 (GMT -0600)
Crossroads Community | Change Station
CLOSE
Current Station
Personal Weather Station
Location: Bells, TN
Elevation: 367 ft
Nearby Weather Stations

Elev 367 ft 35.74 °N, 89.12 °W | Updated 12 minutes ago

Rain
Rain
57.0 °F
Feels Like 57.0 °F
N
6.3
Wind Variable Wind from ESE

Today
High -- | Low -- °F
--% Chance of Precip.
Yesterday
High -- | Low -- °F
Precip. -- in
6:40 AM 4:45 PM
New Moon, 2% visible
Pressure 29.45 in
Visibility 8.0 miles
Clouds Overcast 800 ft
Dew Point 56 °F
Humidity 96%
Rainfall 0.40 in
Snow Depth Not available.
UV 1 out of 12
Pollen .30 out of 12
Air Quality Not available.
Flu Activity Not available.
METAR KMKL 231853Z 12006KT 8SM -RA OVC008 14/13 A2946 RMK AO2 CIG 005V010 PRESFR SLP973 P0007 T01390128

More Conditions Fewer Conditions

Pressure 29.45 in
Visibility 8.0 miles
Clouds Overcast 800 ft
Dew Point 56 °F
Humidity 96%
Rainfall 0.40 in
Snow Depth Not available.
UV 1 out of 12
Pollen .30 out of 12
Air Quality Not available.
Flu Activity Not available.
METAR KMKL 231853Z 12006KT 8SM -RA OVC008 14/13 A2946 RMK AO2 CIG 005V010 PRESFR SLP973 P0007 T01390128

More Conditions Fewer Conditions

10-Day Weather Forecast

Almanac

Astronomy

Nov. 23, 2014 Rise Set
Actual Time
Civil Twilight
Nautical Twilight
Astronomical Twilight
Moon
Length of Visible Light
Length of Day
Tomorrow will be .
, % of the Moon is Illuminated

Today's Extremes

State Highs State Lows

Community

WunderPhotos

Upload Photos

1,773,161 photos uploaded!

WunderBlogs® & News

Nearby

Air Quality

  Air Quality AQ Index Pollutant
Not available.

Snow Depth

Station Depth Elevation

Earthquake Activity

City Distance Mag. Time & Date
Minimum magnitude displayed is 2.5.

Coastal Water Temperatures

Place Temperature

Nearby Weather Stations